createdAt,value
2023-01-01T00:00:27.947Z,16.60
2023-01-01T00:02:56.364Z,16.50
2023-01-01T00:05:24.766Z,16.50
2023-01-01T00:07:53.217Z,16.50
2023-01-01T00:10:29.661Z,16.50
2023-01-01T00:13:00.491Z,16.50
2023-01-01T00:15:29.844Z,16.50
2023-01-01T00:17:58.795Z,16.50
2023-01-01T00:20:33.109Z,16.50
2023-01-01T00:23:03.533Z,16.50
2023-01-01T00:25:32.695Z,16.50
2023-01-01T00:28:03.234Z,16.50
2023-01-01T00:30:31.619Z,16.50
2023-01-01T00:33:00.119Z,16.50
2023-01-01T00:35:28.882Z,16.50
2023-01-01T00:37:57.310Z,16.50
2023-01-01T00:40:25.868Z,16.50
2023-01-01T00:42:54.248Z,16.50
2023-01-01T00:45:24.470Z,16.50
2023-01-01T00:47:54.392Z,16.50
2023-01-01T00:50:23.768Z,16.50
2023-01-01T00:52:52.210Z,16.50
2023-01-01T00:55:20.672Z,16.50
2023-01-01T00:57:49.130Z,16.50
2023-01-01T01:00:18.559Z,16.40
2023-01-01T01:02:48.470Z,16.40
2023-01-01T01:05:17.001Z,16.50
2023-01-01T01:07:45.423Z,16.40
2023-01-01T01:10:13.983Z,16.40
2023-01-01T01:12:42.416Z,16.40
2023-01-01T01:15:11.762Z,16.40
2023-01-01T01:17:40.198Z,16.40
2023-01-01T01:20:11.081Z,16.40
2023-01-01T01:22:39.857Z,16.40
2023-01-01T01:25:09.162Z,16.30
2023-01-01T01:27:37.617Z,16.40
2023-01-01T01:30:07.161Z,16.40
2023-01-01T01:32:35.605Z,16.40
2023-01-01T01:35:03.975Z,16.30
2023-01-01T01:37:33.823Z,16.40
2023-01-01T01:40:02.288Z,16.40
2023-01-01T01:42:30.698Z,16.40
2023-01-01T01:45:01.112Z,16.40
2023-01-01T01:47:34.274Z,16.40
2023-01-01T01:50:08.981Z,16.40
2023-01-01T01:52:42.696Z,16.30
2023-01-01T01:55:11.973Z,16.40
2023-01-01T01:57:42.098Z,16.40
2023-01-01T02:00:12.175Z,16.40
2023-01-01T02:02:44.883Z,16.30
2023-01-01T02:05:13.485Z,16.40
2023-01-01T02:07:43.808Z,16.40
2023-01-01T02:10:12.679Z,16.40
2023-01-01T02:12:41.203Z,16.50
2023-01-01T02:15:10.822Z,16.50
2023-01-01T02:17:46.756Z,16.50
2023-01-01T02:20:32.243Z,16.50
2023-01-01T02:23:51.220Z,16.60
2023-01-01T02:26:42.668Z,16.60
2023-01-01T02:29:31.896Z,16.60
2023-01-01T02:32:03.760Z,16.60
2023-01-01T02:34:36.312Z,16.60
2023-01-01T02:37:08.508Z,16.60
2023-01-01T02:39:40.823Z,16.60
2023-01-01T02:42:10.035Z,16.60
2023-01-01T02:44:44.824Z,16.60
2023-01-01T02:47:15.626Z,16.50
2023-01-01T02:49:55.383Z,16.50
2023-01-01T02:52:47.915Z,16.50
2023-01-01T02:55:27.316Z,16.40
2023-01-01T02:58:24.409Z,16.40
2023-01-01T03:00:59.210Z,16.40
2023-01-01T03:03:32.284Z,16.30
2023-01-01T03:06:24.605Z,16.30
2023-01-01T03:09:01.060Z,16.30
2023-01-01T03:11:37.261Z,16.30
2023-01-01T03:14:13.673Z,16.30
2023-01-01T03:16:49.145Z,16.20
2023-01-01T03:19:22.661Z,16.20
2023-01-01T03:21:56.667Z,16.20
2023-01-01T03:24:28.971Z,16.10
2023-01-01T03:27:01.633Z,16.10
2023-01-01T03:29:33.428Z,16.10
2023-01-01T03:32:05.402Z,16.10
2023-01-01T03:34:38.465Z,16.10
2023-01-01T03:37:10.553Z,16.10
2023-01-01T03:39:43.823Z,16.10
2023-01-01T03:42:18.780Z,16.10
2023-01-01T03:44:50.205Z,16.20
2023-01-01T03:47:20.728Z,16.20
2023-01-01T03:49:51.029Z,16.20
2023-01-01T03:52:31.916Z,16.20
2023-01-01T03:55:07.948Z,16.20
2023-01-01T03:57:45.449Z,16.10
2023-01-01T04:00:18.196Z,16.10
2023-01-01T04:02:53.993Z,16.10
2023-01-01T04:05:23.975Z,16.10
2023-01-01T04:07:53.773Z,16.10
2023-01-01T04:10:22.914Z,16.00
2023-01-01T04:12:54.373Z,16.00
2023-01-01T04:15:25.420Z,16.00
2023-01-01T04:17:56.208Z,16.00
2023-01-01T04:20:25.219Z,15.90
2023-01-01T04:22:56.783Z,16.00
2023-01-01T04:25:25.160Z,16.00
2023-01-01T04:27:53.557Z,16.00
2023-01-01T04:30:23.959Z,16.00
2023-01-01T04:32:52.371Z,16.10
2023-01-01T04:35:22.216Z,16.00
2023-01-01T04:37:50.666Z,16.10
2023-01-01T04:40:19.256Z,16.10
2023-01-01T04:42:47.688Z,16.10
2023-01-01T04:45:16.119Z,16.00
2023-01-01T04:47:44.684Z,16.00
2023-01-01T04:50:13.074Z,16.00
2023-01-01T04:52:42.918Z,16.00
2023-01-01T04:55:11.523Z,16.00
2023-01-01T04:57:39.937Z,16.00
2023-01-01T05:00:09.774Z,15.90
2023-01-01T05:02:38.389Z,16.00
2023-01-01T05:05:09.169Z,16.00
2023-01-01T05:07:37.555Z,16.00
2023-01-01T05:10:08.326Z,16.00
2023-01-01T05:12:36.742Z,16.00
2023-01-01T05:15:05.679Z,16.00
2023-01-01T05:17:34.078Z,16.00
2023-01-01T05:20:02.937Z,16.00
2023-01-01T05:22:31.325Z,16.00
2023-01-01T05:25:00.586Z,16.00
2023-01-01T05:27:30.441Z,16.00
2023-01-01T05:29:59.401Z,16.00
2023-01-01T05:32:28.468Z,16.00
2023-01-01T05:34:57.614Z,16.00
2023-01-01T05:37:27.234Z,16.00
2023-01-01T05:39:55.658Z,16.00
2023-01-01T05:42:24.052Z,16.00
2023-01-01T05:44:53.823Z,16.00
2023-01-01T05:47:22.536Z,16.00
2023-01-01T05:49:50.931Z,16.00
2023-01-01T05:52:24.535Z,16.00
2023-01-01T05:54:54.754Z,16.00
2023-01-01T05:57:23.188Z,16.00
2023-01-01T05:59:51.577Z,16.00
2023-01-01T06:02:21.501Z,16.00
2023-01-01T06:04:50.034Z,16.00
2023-01-01T06:07:19.257Z,16.00
2023-01-01T06:09:47.592Z,16.00
2023-01-01T06:12:16.030Z,16.00
2023-01-01T06:14:44.425Z,16.00
2023-01-01T06:17:12.816Z,16.00
2023-01-01T06:19:42.611Z,16.00
2023-01-01T06:22:11.025Z,16.00
2023-01-01T06:24:39.588Z,16.00
2023-01-01T06:27:08.218Z,16.00
2023-01-01T06:29:36.610Z,16.00
2023-01-01T06:32:05.222Z,16.00
2023-01-01T06:34:38.103Z,16.00
2023-01-01T06:37:08.282Z,16.00
2023-01-01T06:39:36.683Z,16.00
2023-01-01T06:42:05.276Z,15.90
2023-01-01T06:44:33.707Z,15.90
2023-01-01T06:47:02.073Z,15.90
2023-01-01T06:49:30.476Z,15.90
2023-01-01T06:51:58.872Z,15.80
2023-01-01T06:54:28.786Z,15.90
2023-01-01T06:56:57.185Z,15.80
2023-01-01T06:59:25.550Z,15.80
2023-01-01T07:01:54.052Z,15.80
2023-01-01T07:04:26.620Z,15.80
2023-01-01T07:06:55.168Z,15.80
2023-01-01T07:09:23.534Z,15.80
2023-01-01T07:11:53.333Z,15.80
2023-01-01T07:14:21.760Z,15.80
2023-01-01T07:16:50.166Z,15.80
2023-01-01T07:19:18.565Z,15.80
2023-01-01T07:21:52.627Z,15.80
2023-01-01T07:24:21.422Z,15.80
2023-01-01T07:26:50.242Z,15.80
2023-01-01T07:29:20.070Z,15.80
2023-01-01T07:31:48.494Z,15.90
2023-01-01T07:34:19.359Z,15.90
2023-01-01T07:36:47.788Z,15.90
2023-01-01T07:39:16.204Z,16.00
2023-01-01T07:41:44.592Z,16.00
2023-01-01T07:44:13.036Z,16.00
2023-01-01T07:46:42.923Z,16.00
2023-01-01T07:49:11.363Z,16.00
2023-01-01T07:51:39.703Z,16.00
2023-01-01T07:54:08.155Z,16.10
2023-01-01T07:56:37.350Z,16.00
2023-01-01T07:59:05.861Z,16.10
2023-01-01T08:01:37.969Z,16.10
2023-01-01T08:04:08.139Z,16.10
2023-01-01T08:06:36.779Z,16.10
2023-01-01T08:09:05.355Z,16.10
2023-01-01T08:11:33.734Z,16.10
2023-01-01T08:14:02.291Z,16.10
2023-01-01T08:16:30.734Z,16.10
2023-01-01T08:18:59.225Z,16.10
2023-01-01T08:21:29.066Z,16.10
2023-01-01T08:23:57.446Z,16.20
2023-01-01T08:26:31.379Z,16.20
2023-01-01T08:29:00.305Z,16.20
2023-01-01T08:31:28.889Z,16.30
2023-01-01T08:33:57.438Z,16.30
2023-01-01T08:36:26.126Z,16.30
2023-01-01T08:38:55.929Z,16.40
2023-01-01T08:41:24.333Z,16.40
2023-01-01T08:43:52.811Z,16.30
2023-01-01T08:46:21.244Z,16.40
2023-01-01T08:48:49.666Z,16.40
2023-01-01T08:51:18.404Z,16.40
2023-01-01T08:53:50.840Z,16.40
2023-01-01T08:56:21.659Z,16.50
2023-01-01T08:58:50.520Z,16.50
2023-01-01T09:01:21.872Z,16.50
2023-01-01T09:03:50.797Z,16.50
2023-01-01T09:06:19.407Z,16.50
2023-01-01T09:08:47.810Z,16.50
2023-01-01T09:11:24.957Z,16.50
2023-01-01T09:13:54.063Z,16.50
2023-01-01T09:16:23.305Z,16.50
2023-01-01T09:18:51.774Z,16.50
2023-01-01T09:21:20.238Z,16.50
2023-01-01T09:23:48.650Z,16.50
2023-01-01T09:26:17.027Z,16.60
2023-01-01T09:28:46.856Z,16.60
2023-01-01T09:31:15.379Z,16.60
2023-01-01T09:33:43.782Z,16.60
2023-01-01T09:36:16.675Z,16.60
2023-01-01T09:38:49.550Z,16.70
2023-01-01T09:41:25.899Z,16.70
2023-01-01T09:44:03.934Z,16.70
2023-01-01T09:46:32.945Z,16.80
2023-01-01T09:49:04.313Z,16.80
2023-01-01T09:51:43.253Z,16.90
2023-01-01T09:54:26.840Z,17.00
2023-01-01T09:56:58.445Z,17.00
2023-01-01T09:59:29.082Z,17.10
2023-01-01T10:02:04.346Z,17.10
2023-01-01T10:04:47.293Z,17.10
2023-01-01T10:07:23.261Z,17.20
2023-01-01T10:10:00.656Z,17.20
2023-01-01T10:12:37.331Z,17.20
2023-01-01T10:15:15.365Z,17.20
2023-01-01T10:17:47.372Z,17.20
2023-01-01T10:20:22.941Z,17.30
2023-01-01T10:22:55.621Z,17.30
2023-01-01T10:25:26.034Z,17.30
2023-01-01T10:27:59.942Z,17.30
2023-01-01T10:30:31.602Z,17.30
2023-01-01T10:33:00.704Z,17.30
2023-01-01T10:35:35.956Z,17.30
2023-01-01T10:38:05.890Z,17.40
2023-01-01T10:40:35.198Z,17.40
2023-01-01T10:43:04.442Z,17.40
2023-01-01T10:45:35.953Z,17.40
2023-01-01T10:48:16.838Z,17.40
2023-01-01T10:50:49.197Z,17.40
2023-01-01T10:53:23.391Z,17.40
2023-01-01T10:55:52.709Z,17.50
2023-01-01T10:58:28.767Z,17.50
2023-01-01T11:01:02.670Z,17.50
2023-01-01T11:03:31.164Z,17.50
2023-01-01T11:06:07.075Z,17.50
2023-01-01T11:08:38.526Z,17.50
2023-01-01T11:11:07.579Z,17.50
2023-01-01T11:13:36.169Z,17.50
2023-01-01T11:16:13.156Z,17.50
2023-01-01T11:18:41.578Z,17.50
2023-01-01T11:21:10.354Z,17.50
2023-01-01T11:23:40.848Z,17.60
2023-01-01T11:26:24.606Z,17.60
2023-01-01T11:29:04.871Z,17.60
2023-01-01T11:31:38.782Z,17.60
2023-01-01T11:34:22.509Z,17.60
2023-01-01T11:36:51.073Z,17.60
2023-01-01T11:39:25.094Z,17.60
2023-01-01T11:41:55.445Z,17.60
2023-01-01T11:44:29.683Z,17.60
2023-01-01T11:46:59.916Z,17.60
2023-01-01T11:49:31.488Z,17.60
2023-01-01T11:52:00.281Z,17.70
2023-01-01T11:54:36.177Z,17.70
2023-01-01T11:57:10.842Z,17.70
2023-01-01T11:59:46.722Z,17.70
2023-01-01T12:02:20.669Z,17.70
2023-01-01T12:04:54.930Z,17.70
2023-01-01T12:07:26.938Z,17.70
2023-01-01T12:10:01.633Z,17.70
2023-01-01T12:12:35.706Z,17.70
2023-01-01T12:15:08.549Z,17.70
2023-01-01T12:17:42.855Z,17.70
2023-01-01T12:20:21.452Z,17.60
2023-01-01T12:22:50.564Z,17.60
2023-01-01T12:25:21.158Z,17.60
2023-01-01T12:28:02.519Z,17.60
2023-01-01T12:30:39.514Z,17.70
2023-01-01T12:33:23.018Z,17.70
2023-01-01T12:36:04.026Z,17.80
2023-01-01T12:38:59.780Z,17.80
2023-01-01T12:41:37.418Z,17.80
2023-01-01T12:44:16.769Z,17.80
2023-01-01T12:46:51.986Z,17.80
2023-01-01T12:49:38.256Z,17.70
2023-01-01T12:52:16.518Z,17.70
2023-01-01T12:55:24.950Z,17.70
2023-01-01T12:58:01.833Z,17.70
2023-01-01T13:00:30.371Z,17.60
2023-01-01T13:03:02.357Z,17.60
2023-01-01T13:05:39.112Z,17.60
2023-01-01T13:08:08.251Z,17.50
2023-01-01T13:10:39.411Z,17.50
2023-01-01T13:13:08.828Z,17.50
2023-01-01T13:15:53.047Z,17.50
2023-01-01T13:18:29.636Z,17.40
2023-01-01T13:21:03.725Z,17.40
2023-01-01T13:23:47.927Z,17.40
2023-01-01T13:26:37.180Z,17.40
2023-01-01T13:29:33.691Z,17.40
2023-01-01T13:32:10.153Z,17.40
2023-01-01T13:35:16.883Z,17.30
2023-01-01T13:37:48.697Z,17.30
2023-01-01T13:40:53.180Z,17.30
2023-01-01T13:43:28.907Z,17.30
2023-01-01T13:46:11.882Z,17.20
2023-01-01T13:49:14.247Z,17.20
2023-01-01T13:52:15.499Z,17.20
2023-01-01T13:55:20.654Z,17.20
2023-01-01T13:58:17.635Z,17.10
2023-01-01T14:01:14.945Z,17.10
2023-01-01T14:03:47.076Z,17.10
2023-01-01T14:06:21.223Z,17.10
2023-01-01T14:09:02.600Z,17.10
2023-01-01T14:11:30.966Z,17.00
2023-01-01T14:14:00.888Z,17.00
2023-01-01T14:16:30.442Z,17.00
2023-01-01T14:19:00.985Z,16.90
2023-01-01T14:21:33.268Z,16.90
2023-01-01T14:24:05.166Z,16.90
2023-01-01T14:26:38.537Z,16.80
2023-01-01T14:29:10.784Z,16.80
2023-01-01T14:31:44.276Z,16.70
2023-01-01T14:34:17.234Z,16.70
2023-01-01T14:36:53.180Z,16.70
2023-01-01T14:39:28.043Z,16.70
2023-01-01T14:41:59.969Z,16.60
2023-01-01T14:44:36.143Z,16.60
2023-01-01T14:47:05.727Z,16.50
2023-01-01T14:49:38.143Z,16.50
2023-01-01T14:52:10.698Z,16.40
2023-01-01T14:54:43.483Z,16.40
2023-01-01T14:57:13.805Z,16.40
2023-01-01T14:59:49.696Z,16.40
2023-01-01T15:02:22.471Z,16.40
2023-01-01T15:04:51.471Z,16.30
2023-01-01T15:07:23.576Z,16.30
2023-01-01T15:09:52.243Z,16.30
2023-01-01T15:12:21.665Z,16.30
2023-01-01T15:14:53.424Z,16.30
2023-01-01T15:17:23.811Z,16.20
2023-01-01T15:20:03.248Z,16.20
2023-01-01T15:22:33.888Z,16.20
2023-01-01T15:25:03.282Z,16.20
2023-01-01T15:27:34.442Z,16.20
2023-01-01T15:30:13.507Z,16.20
2023-01-01T15:32:42.562Z,16.30
2023-01-01T15:35:27.748Z,16.30
2023-01-01T15:38:02.252Z,16.30
2023-01-01T15:40:35.827Z,16.30
2023-01-01T15:43:15.666Z,16.30
2023-01-01T15:45:53.756Z,16.40
2023-01-01T15:48:26.685Z,16.30
2023-01-01T15:51:14.209Z,16.30
2023-01-01T15:53:55.843Z,16.30
2023-01-01T15:56:26.783Z,16.30
2023-01-01T15:59:05.034Z,16.20
2023-01-01T16:01:40.855Z,16.20
2023-01-01T16:04:11.555Z,16.10
2023-01-01T16:06:45.315Z,16.10
2023-01-01T16:09:14.583Z,16.00
2023-01-01T16:11:43.183Z,15.90
2023-01-01T16:14:11.852Z,15.80
2023-01-01T16:16:44.686Z,15.80
2023-01-01T16:19:18.017Z,15.70
2023-01-01T16:21:46.505Z,15.60
2023-01-01T16:24:15.758Z,15.50
2023-01-01T16:26:44.595Z,15.50
2023-01-01T16:29:13.357Z,15.40
2023-01-01T16:31:44.329Z,15.40
2023-01-01T16:34:15.297Z,15.40
2023-01-01T16:36:43.983Z,15.40
2023-01-01T16:39:12.824Z,15.40
2023-01-01T16:41:42.933Z,15.30
2023-01-01T16:44:13.283Z,15.40
2023-01-01T16:46:43.250Z,15.30
2023-01-01T16:49:11.762Z,15.30
2023-01-01T16:51:43.741Z,15.30
2023-01-01T16:54:12.764Z,15.20
2023-01-01T16:56:41.250Z,15.20
2023-01-01T16:59:09.679Z,15.10
2023-01-01T17:01:38.191Z,15.10
2023-01-01T17:04:08.502Z,15.00
2023-01-01T17:06:39.387Z,15.00
2023-01-01T17:09:09.666Z,15.00
2023-01-01T17:11:39.452Z,15.00
2023-01-01T17:14:07.879Z,14.90
2023-01-01T17:16:39.403Z,14.90
2023-01-01T17:19:17.220Z,14.90
2023-01-01T17:21:46.700Z,14.90
2023-01-01T17:24:15.332Z,14.90
2023-01-01T17:26:43.747Z,14.90
2023-01-01T17:29:12.239Z,14.90
2023-01-01T17:31:40.748Z,14.90
2023-01-01T17:34:14.306Z,14.90
2023-01-01T17:36:44.242Z,14.90
2023-01-01T17:39:13.665Z,14.90
2023-01-01T17:41:42.678Z,14.90
2023-01-01T17:44:11.802Z,14.90
2023-01-01T17:46:40.994Z,14.90
2023-01-01T17:49:11.827Z,14.90
2023-01-01T17:51:40.298Z,14.90
2023-01-01T17:54:11.797Z,14.90
2023-01-01T17:56:42.319Z,14.90
2023-01-01T17:59:11.003Z,14.80
2023-01-01T18:01:39.554Z,14.80
2023-01-01T18:04:10.724Z,14.80
2023-01-01T18:06:42.420Z,14.80
2023-01-01T18:09:13.556Z,14.80
2023-01-01T18:11:42.754Z,14.80
2023-01-01T18:14:11.945Z,14.80
2023-01-01T18:16:41.768Z,14.80
2023-01-01T18:19:11.581Z,14.80
2023-01-01T18:21:39.983Z,14.70
2023-01-01T18:24:13.038Z,14.70
2023-01-01T18:26:41.853Z,14.70
2023-01-01T18:29:10.323Z,14.60
2023-01-01T18:31:38.791Z,14.60
2023-01-01T18:34:07.293Z,14.50
2023-01-01T18:36:37.142Z,14.40
2023-01-01T18:39:14.870Z,14.40
2023-01-01T18:42:30.933Z,14.40
2023-01-01T18:45:09.653Z,14.40
2023-01-01T18:47:38.074Z,14.30
2023-01-01T18:50:16.163Z,14.30
2023-01-01T18:52:47.486Z,14.30
2023-01-01T18:55:19.145Z,14.30
2023-01-01T18:57:50.756Z,14.30
2023-01-01T19:00:22.927Z,14.30
2023-01-01T19:02:58.072Z,14.30
2023-01-01T19:05:28.721Z,14.40
2023-01-01T19:08:13.880Z,14.40
2023-01-01T19:10:45.459Z,14.40
2023-01-01T19:13:20.496Z,14.40
2023-01-01T19:15:51.293Z,14.30
2023-01-01T19:18:21.982Z,14.30
2023-01-01T19:20:59.638Z,14.30
2023-01-01T19:23:31.509Z,14.40
2023-01-01T19:26:03.592Z,14.40
2023-01-01T19:28:37.722Z,14.30
2023-01-01T19:31:07.735Z,14.40
2023-01-01T19:33:36.353Z,14.40
2023-01-01T19:36:04.885Z,14.40
2023-01-01T19:38:34.731Z,14.40
2023-01-01T19:41:03.355Z,14.40
2023-01-01T19:43:36.015Z,14.40
2023-01-01T19:46:04.447Z,14.40
2023-01-01T19:48:32.902Z,14.50
2023-01-01T19:51:01.255Z,14.50
2023-01-01T19:53:29.613Z,14.50
2023-01-01T19:55:59.463Z,14.60
2023-01-01T19:58:27.875Z,14.60
2023-01-01T20:00:56.273Z,14.60
2023-01-01T20:06:14.642Z,14.70
2023-01-01T20:08:43.067Z,14.70
2023-01-01T20:11:12.859Z,14.70
2023-01-01T20:13:41.230Z,14.70
2023-01-01T20:16:10.103Z,14.70
2023-01-01T20:18:38.608Z,14.70
2023-01-01T20:21:26.712Z,14.80
2023-01-01T20:23:55.789Z,14.70
2023-01-01T20:26:26.291Z,14.80
2023-01-01T20:29:12.145Z,14.80
2023-01-01T20:31:40.679Z,14.80
2023-01-01T20:34:09.067Z,14.80
2023-01-01T20:36:54.820Z,14.80
2023-01-01T20:39:23.621Z,14.80
2023-01-01T20:41:53.529Z,14.80
2023-01-01T20:44:22.042Z,14.80
2023-01-01T20:46:50.533Z,14.80
2023-01-01T20:49:20.039Z,14.80
2023-01-01T20:51:49.722Z,14.80
2023-01-01T20:54:18.542Z,14.80
2023-01-01T20:56:46.972Z,14.80
2023-01-01T20:59:35.908Z,14.80
2023-01-01T21:02:05.977Z,14.80
2023-01-01T21:04:39.055Z,14.70
2023-01-01T21:07:09.366Z,14.70
2023-01-01T21:09:38.327Z,14.70
2023-01-01T21:12:07.610Z,14.70
2023-01-01T21:14:37.654Z,14.70
2023-01-01T21:17:18.617Z,14.80
2023-01-01T21:19:47.165Z,14.70
2023-01-01T21:22:15.965Z,14.80
2023-01-01T21:24:47.323Z,14.80
2023-01-01T21:27:25.110Z,14.80
2023-01-01T21:29:57.789Z,14.80
2023-01-01T21:32:28.846Z,14.80
2023-01-01T21:34:57.619Z,14.80
2023-01-01T21:37:50.183Z,14.80
2023-01-01T21:40:41.256Z,14.80
2023-01-01T21:43:30.776Z,14.90
2023-01-01T21:46:25.019Z,14.90
2023-01-01T21:49:00.249Z,14.90
2023-01-01T21:51:31.591Z,14.80
2023-01-01T21:54:16.639Z,14.80
2023-01-01T21:56:52.855Z,14.80
2023-01-01T21:59:29.083Z,14.80
2023-01-01T22:02:26.234Z,14.80
2023-01-01T22:04:54.800Z,14.80
2023-01-01T22:07:58.281Z,14.80
2023-01-01T22:10:18.393Z,14.80
2023-01-01T22:12:48.012Z,14.80
2023-01-01T22:15:39.416Z,14.80
2023-01-01T22:18:22.474Z,14.80
2023-01-01T22:20:51.113Z,14.80
2023-01-01T22:23:24.965Z,14.80
2023-01-01T22:25:53.971Z,14.80
2023-01-01T22:28:24.814Z,14.80
2023-01-01T22:30:56.498Z,14.80
2023-01-01T22:33:33.902Z,14.80
2023-01-01T22:36:02.311Z,14.80
2023-01-01T22:38:34.707Z,14.80
2023-01-01T22:41:03.212Z,14.80
2023-01-01T22:43:35.511Z,14.80
2023-01-01T22:46:12.288Z,14.80
2023-01-01T22:48:42.175Z,14.80
2023-01-01T22:51:18.449Z,14.80
2023-01-01T22:53:47.092Z,14.80
2023-01-01T22:56:15.686Z,14.80
2023-01-01T22:58:44.219Z,14.80
2023-01-01T23:01:12.645Z,14.80
2023-01-01T23:03:42.500Z,14.80
2023-01-01T23:06:10.939Z,14.80
2023-01-01T23:08:39.394Z,14.80
2023-01-01T23:11:08.436Z,14.80
2023-01-01T23:13:54.210Z,14.80
2023-01-01T23:16:22.664Z,14.80
2023-01-01T23:18:52.539Z,14.80
2023-01-01T23:21:27.089Z,14.80
2023-01-01T23:23:57.444Z,14.80
2023-01-01T23:26:26.889Z,14.80
2023-01-01T23:28:56.237Z,14.80
2023-01-01T23:31:26.910Z,14.80
2023-01-01T23:33:58.316Z,14.80
2023-01-01T23:36:27.874Z,14.80
2023-01-01T23:38:56.384Z,14.80
2023-01-01T23:41:25.447Z,14.80
2023-01-01T23:43:53.944Z,14.80
2023-01-01T23:46:22.714Z,14.80
2023-01-01T23:48:51.592Z,14.80
2023-01-01T23:51:21.716Z,14.80
2023-01-01T23:53:50.101Z,14.80
2023-01-01T23:56:18.541Z,14.80
2023-01-01T23:58:46.979Z,14.80
